Flight Track Log - Related Links

Times and Time Zones

All times are in EDT time to prevent confusion due to time zone crossing. See the SKW5646 flight status page for this flight to view local times or setup timezone preferences in your user account.

Time Position Orientation Groundspeed Altitude Reporting Facility
EDT Latitude Longitude Course Direction KTS MPH feet Rate Location/Type
01:40PM 37.6667 -122.3667 208° Southwest 164 189 1,700  Level Northern Cal TRACON
01:41PM 37.7000 -122.4000 322° Northwest 197 227 3,500 1,835 Climbing Northern Cal TRACON
01:42PM 37.6500 -122.4333 208° Southwest 189 217 5,400 1,550 Climbing Northern Cal TRACON
01:43PM 37.4303 -122.4833 180° South  Level FlightAware Approximate
01:43PM 37.6000 -122.4500 195° South 213 245 6,600  Level Northern Cal TRACON
01:43PM 37.5917 -122.4547 204° Southwest 202 232 6,700 923 Climbing Oakland Center
01:44PM 37.3493 -122.5172 208° Southwest  Level FlightAware Approximate
01:44PM 37.5292 -122.4786 197° South 228 262 7,800  Level Oakland Center
01:45PM 37.2879 -122.5581 208° Southwest  Level FlightAware Approximate
01:45PM 37.4572 -122.4922 189° South 221 254 10,200  Level Oakland Center
01:46PM 37.3994 -122.4833 173° South 212 244 11,600 1,452 Climbing Oakland Center
01:47PM 37.3378 -122.4761 175° South 221 254 13,200 1,317 Climbing Oakland Center
01:48PM 37.2744 -122.4681 174° South 227 261 14,300 1,073 Climbing Oakland Center
01:49PM 37.2075 -122.4594 174° South 239 275 15,400 1,016 Climbing Oakland Center
01:50PM 37.1389 -122.4494 173° South 247 284 16,400 1,024 Climbing Oakland Center
01:51PM 37.0708 -122.4328 169° South 250 288 17,500 1,171 Climbing Oakland Center
01:52PM 37.0011 -122.3733 146° Southeast 252 290 18,800 1,122 Climbing Oakland Center
01:53PM 36.9439 -122.3219 144° Southeast 254 292 19,800 927 Climbing Oakland Center
01:54PM 36.8878 -122.2667 142° Southeast 258 297 20,700 886 Climbing Oakland Center
01:56PM 36.7817 -122.1656 143° Southeast 258 297 22,400 746 Climbing Los Angeles Center
01:57PM 36.7153 -122.1053 144° Southeast 258 297 23,000 273 Climbing Oakland Center
01:58PM 36.6500 -122.0517 147° Southeast 280 322 23,000  Level Oakland Center
01:59PM 36.5858 -121.9944 144° Southeast 284 327 23,000  Level Oakland Center
02:00PM 36.5083 -121.9275 145° Southeast 284 327 23,000  Level Oakland Center
02:01PM 36.4433 -121.8700 145° Southeast 286 329 23,000  Level Oakland Center
02:02PM 36.3800 -121.8114 143° Southeast 285 328 23,000  Level Oakland Center
02:03PM 36.3122 -121.7492 144° Southeast 285 328 23,000  Level Oakland Center
02:04PM 36.2494 -121.6889 142° Southeast 286 329 23,000  Level Oakland Center
02:05PM 36.1867 -121.6308 143° Southeast 284 327 23,000  Level Oakland Center
02:06PM 36.1242 -121.5703 142° Southeast 285 328 23,000  Level Oakland Center
02:07PM 36.0619 -121.5106 142° Southeast 285 328 23,000  Level Oakland Center
02:09PM 35.9983 -121.4506 143° Southeast 286 329 23,000  Level Oakland Center
02:10PM 35.9225 -121.3783 142° Southeast 289 333 23,000  Level Oakland Center
02:11PM 35.8592 -121.3194 143° Southeast 287 330 23,000  Level Oakland Center
02:12PM 35.7956 -121.2583 142° Southeast 289 333 23,000  Level Oakland Center
02:13PM 35.7319 -121.2008 144° Southeast 286 329 23,000  Level Oakland Center
02:14PM 35.6689 -121.1403 142° Southeast 288 331 23,000  Level Oakland Center
02:15PM 35.6072 -121.0806 142° Southeast 285 328 23,000  Level Oakland Center
02:16PM 35.5439 -121.0217 143° Southeast 287 330 23,000  Level Oakland Center
02:17PM 35.4689 -120.9519 143° Southeast 284 327 23,000  Level Oakland Center
02:18PM 35.4061 -120.8942 143° Southeast 286 329 23,000  Level Oakland Center
02:19PM 35.3444 -120.8381 143° Southeast 282 325 23,000  Level Los Angeles Center
02:20PM 35.2828 -120.7808 143° Southeast 281 323 23,000 -387 Level Los Angeles Center
02:21PM 35.2206 -120.7233 143° Southeast 282 325 22,200 -1,161 Descending Los Angeles Center
02:22PM 35.1447 -120.6525 143° Southeast 287 330 20,600 -1,452 Descending Los Angeles Center
02:23PM 35.0828 -120.5928 142° Southeast 286 329 19,200 -1,306 Descending Los Angeles Center
02:24PM 35.0206 -120.5339 142° Southeast 285 328 17,900 -1,392 Descending Los Angeles Center
02:25PM 34.9572 -120.4758 143° Southeast 286 329 16,300 -1,773 Descending Los Angeles Center
02:25PM 34.9228 -120.4444 143° Southeast 292 336 15,300 -1,839 Descending Los Angeles Center
02:26PM 34.8919 -120.4183 145° Southeast 289 333 14,400 -1,835 Descending Los Angeles Center
02:27PM 34.8275 -120.3622 144° Southeast 284 327 12,700 -1,882 Descending Los Angeles Center
02:28PM 34.7717 -120.3147 145° Southeast 272 313 11,200 -1,579 Descending Los Angeles Center
02:28PM 34.7561 -120.2989 140° Southeast 272 313 10,700 -1,527 Descending Los Angeles Center
02:29PM 34.7211 -120.2706 146° Southeast 261 300 9,800 -1,452 Descending Los Angeles Center
02:29PM 34.6969 -120.2486 143° Southeast 263 303 9,200 -1,667 Descending Los Angeles Center
02:30PM 34.6656 -120.2231 146° Southeast 259 298 8,300 -1,645 Descending Los Angeles Center
02:30PM 34.6397 -120.1983 142° Southeast 257 296 7,500 -1,672 Descending Los Angeles Center
02:31PM 34.6083 -120.1786 153° Southeast 240 276 6,600 -1,548 Descending Los Angeles Center
02:31PM 34.5814 -120.1642 156° South 239 275 5,900 -1,574 Descending Los Angeles Center
02:32PM 34.5492 -120.1453 154° Southeast 230 265 5,000 -1,839 Descending Los Angeles Center
02:32PM 34.5131 -120.1258 156° South 228 262 4,000 -1,111 Descending Los Angeles Center
02:33PM 34.5003 -120.1192 157° South 216 249 4,000 -95 Level Los Angeles Center
02:33PM 34.4669 -120.0989 153° Southeast 192 221 3,900 -164 Descending Los Angeles Center
02:34PM 34.4353 -120.0675 141° Southeast 176 203 3,700 -600 Descending Los Angeles Center
02:35PM 34.4261 -120.0467 118° Southeast 164 189 3,100 -1,161 Descending Los Angeles Center
02:35PM 34.4194 -120.0089 102° East 157 181 2,500 -800 Descending Los Angeles Center
02:36PM 34.4250 -119.9922 68° East 155 178 2,300 -750 Descending Los Angeles Center

Login

Don't have an account? Register now (free) for customized features, flight alerts, and more!